sensor_id;sensor_type;location;lat;lon;timestamp;noise_LAeq;noise_LA_min;noise_LA_max;noise_LA01;noise_LA95
37162;Laerm;68342;52.598;13.450;2023-08-21T00:02:03;42.17;32.18;50.61;;
37162;Laerm;68342;52.598;13.450;2023-08-21T00:04:29;37.26;31.39;45.91;;
37162;Laerm;68342;52.598;13.450;2023-08-21T00:06:55;34.34;30.70;50.20;;
37162;Laerm;68342;52.598;13.450;2023-08-21T00:09:20;33.54;30.34;48.20;;
37162;Laerm;68342;52.598;13.450;2023-08-21T00:11:45;35.23;30.41;47.88;;
37162;Laerm;68342;52.598;13.450;2023-08-21T00:14:10;34.62;30.87;46.63;;
37162;Laerm;68342;52.598;13.450;2023-08-21T00:16:36;34.31;31.02;43.96;;
37162;Laerm;68342;52.598;13.450;2023-08-21T00:19:01;33.42;30.43;49.98;;
37162;Laerm;68342;52.598;13.450;2023-08-21T00:21:26;33.37;30.25;47.01;;
37162;Laerm;68342;52.598;13.450;2023-08-21T00:23:51;35.23;30.87;48.46;;
37162;Laerm;68342;52.598;13.450;2023-08-21T00:26:17;38.92;30.56;53.10;;
37162;Laerm;68342;52.598;13.450;2023-08-21T00:28:42;33.80;30.49;47.42;;
37162;Laerm;68342;52.598;13.450;2023-08-21T00:31:07;33.90;30.87;47.40;;
37162;Laerm;68342;52.598;13.450;2023-08-21T00:33:33;34.00;30.42;46.06;;
37162;Laerm;68342;52.598;13.450;2023-08-21T00:35:58;33.80;30.07;46.81;;
37162;Laerm;68342;52.598;13.450;2023-08-21T00:38:24;33.50;30.45;45.19;;
37162;Laerm;68342;52.598;13.450;2023-08-21T00:40:49;33.78;30.60;47.37;;
37162;Laerm;68342;52.598;13.450;2023-08-21T00:43:15;34.40;30.80;46.84;;
37162;Laerm;68342;52.598;13.450;2023-08-21T00:45:41;36.47;30.36;50.44;;
37162;Laerm;68342;52.598;13.450;2023-08-21T00:48:06;33.97;30.66;47.59;;
37162;Laerm;68342;52.598;13.450;2023-08-21T00:50:32;37.19;30.63;49.44;;
37162;Laerm;68342;52.598;13.450;2023-08-21T00:52:57;59.88;34.68;71.62;;
37162;Laerm;68342;52.598;13.450;2023-08-21T00:55:22;42.44;31.51;52.31;;
37162;Laerm;68342;52.598;13.450;2023-08-21T00:57:48;44.33;30.99;55.04;;
37162;Laerm;68342;52.598;13.450;2023-08-21T01:00:13;33.71;30.57;45.16;;
37162;Laerm;68342;52.598;13.450;2023-08-21T01:02:39;33.80;30.78;47.73;;
37162;Laerm;68342;52.598;13.450;2023-08-21T01:05:04;33.95;30.65;47.46;;
37162;Laerm;68342;52.598;13.450;2023-08-21T01:07:30;33.92;30.59;46.95;;
37162;Laerm;68342;52.598;13.450;2023-08-21T01:10:00;33.87;30.40;56.62;;
37162;Laerm;68342;52.598;13.450;2023-08-21T01:13:30;33.56;30.39;51.37;;
37162;Laerm;68342;52.598;13.450;2023-08-21T01:15:22;34.08;30.56;51.82;;
37162;Laerm;68342;52.598;13.450;2023-08-21T01:17:48;33.42;30.46;45.85;;
37162;Laerm;68342;52.598;13.450;2023-08-21T01:20:14;34.05;30.78;52.06;;
37162;Laerm;68342;52.598;13.450;2023-08-21T01:22:40;34.08;30.66;50.43;;
37162;Laerm;68342;52.598;13.450;2023-08-21T01:25:06;33.57;30.57;50.06;;
37162;Laerm;68342;52.598;13.450;2023-08-21T01:27:32;33.81;30.73;50.00;;
37162;Laerm;68342;52.598;13.450;2023-08-21T01:29:58;41.45;31.33;54.27;;
37162;Laerm;68342;52.598;13.450;2023-08-21T01:32:29;34.50;31.25;51.56;;
37162;Laerm;68342;52.598;13.450;2023-08-21T01:34:57;34.31;31.06;53.00;;
37162;Laerm;68342;52.598;13.450;2023-08-21T01:37:24;34.57;30.75;49.83;;
37162;Laerm;68342;52.598;13.450;2023-08-21T01:39:49;34.71;31.35;45.46;;
37162;Laerm;68342;52.598;13.450;2023-08-21T01:42:14;34.88;31.31;48.09;;
37162;Laerm;68342;52.598;13.450;2023-08-21T01:44:39;34.07;30.95;47.29;;
37162;Laerm;68342;52.598;13.450;2023-08-21T01:47:05;35.68;31.33;55.96;;
37162;Laerm;68342;52.598;13.450;2023-08-21T01:49:30;35.01;30.87;47.11;;
37162;Laerm;68342;52.598;13.450;2023-08-21T01:51:55;33.87;31.09;45.00;;
37162;Laerm;68342;52.598;13.450;2023-08-21T01:54:21;34.34;31.26;50.04;;
37162;Laerm;68342;52.598;13.450;2023-08-21T01:56:46;34.21;31.01;49.43;;
37162;Laerm;68342;52.598;13.450;2023-08-21T01:59:11;34.83;31.38;50.65;;
37162;Laerm;68342;52.598;13.450;2023-08-21T02:01:36;36.93;31.06;53.08;;
37162;Laerm;68342;52.598;13.450;2023-08-21T02:04:02;34.18;30.95;50.47;;
37162;Laerm;68342;52.598;13.450;2023-08-21T02:06:27;35.20;31.22;46.49;;
37162;Laerm;68342;52.598;13.450;2023-08-21T02:08:52;35.93;31.18;44.70;;
37162;Laerm;68342;52.598;13.450;2023-08-21T02:11:17;36.28;31.32;48.49;;
37162;Laerm;68342;52.598;13.450;2023-08-21T02:13:43;34.33;31.45;50.27;;
37162;Laerm;68342;52.598;13.450;2023-08-21T02:16:08;34.89;31.41;45.58;;
37162;Laerm;68342;52.598;13.450;2023-08-21T02:18:47;35.23;31.59;47.15;;
37162;Laerm;68342;52.598;13.450;2023-08-21T02:21:16;36.25;32.97;49.54;;
37162;Laerm;68342;52.598;13.450;2023-08-21T02:23:44;37.55;32.68;46.87;;
37162;Laerm;68342;52.598;13.450;2023-08-21T02:26:14;36.86;32.99;51.93;;
37162;Laerm;68342;52.598;13.450;2023-08-21T02:28:40;36.94;32.89;46.93;;
37162;Laerm;68342;52.598;13.450;2023-08-21T02:31:11;36.84;32.57;49.35;;
37162;Laerm;68342;52.598;13.450;2023-08-21T02:33:43;38.39;33.09;48.96;;
37162;Laerm;68342;52.598;13.450;2023-08-21T02:36:20;37.89;32.90;57.34;;
37162;Laerm;68342;52.598;13.450;2023-08-21T02:38:49;40.24;33.77;52.06;;
37162;Laerm;68342;52.598;13.450;2023-08-21T02:41:20;37.05;33.91;49.64;;
37162;Laerm;68342;52.598;13.450;2023-08-21T02:44:08;37.13;33.62;49.51;;
37162;Laerm;68342;52.598;13.450;2023-08-21T02:47:15;37.73;33.97;51.17;;
37162;Laerm;68342;52.598;13.450;2023-08-21T02:50:02;37.11;33.86;46.16;;
37162;Laerm;68342;52.598;13.450;2023-08-21T02:52:28;36.59;33.29;47.64;;
37162;Laerm;68342;52.598;13.450;2023-08-21T02:54:53;39.57;35.99;48.14;;
37162;Laerm;68342;52.598;13.450;2023-08-21T02:57:18;38.62;34.09;46.56;;
37162;Laerm;68342;52.598;13.450;2023-08-21T02:59:44;40.64;35.72;50.88;;
37162;Laerm;68342;52.598;13.450;2023-08-21T03:02:09;40.51;35.16;49.53;;
37162;Laerm;68342;52.598;13.450;2023-08-21T03:04:34;37.77;34.65;46.76;;
37162;Laerm;68342;52.598;13.450;2023-08-21T03:06:59;38.20;34.34;50.43;;
37162;Laerm;68342;52.598;13.450;2023-08-21T03:09:25;38.53;35.28;52.45;;
37162;Laerm;68342;52.598;13.450;2023-08-21T03:11:50;39.34;35.30;48.47;;
37162;Laerm;68342;52.598;13.450;2023-08-21T03:14:15;38.72;35.29;56.91;;
37162;Laerm;68342;52.598;13.450;2023-08-21T03:16:40;38.84;34.23;54.34;;
37162;Laerm;68342;52.598;13.450;2023-08-21T03:19:05;40.56;34.95;53.45;;
37162;Laerm;68342;52.598;13.450;2023-08-21T03:21:31;38.63;35.09;52.51;;
37162;Laerm;68342;52.598;13.450;2023-08-21T03:23:57;39.22;36.10;46.18;;
37162;Laerm;68342;52.598;13.450;2023-08-21T03:26:23;38.31;34.78;47.65;;
37162;Laerm;68342;52.598;13.450;2023-08-21T03:28:48;38.20;35.30;48.21;;
37162;Laerm;68342;52.598;13.450;2023-08-21T03:31:14;39.19;35.57;52.82;;
37162;Laerm;68342;52.598;13.450;2023-08-21T03:33:39;42.73;36.34;51.71;;
37162;Laerm;68342;52.598;13.450;2023-08-21T03:36:04;38.60;35.11;45.95;;
37162;Laerm;68342;52.598;13.450;2023-08-21T03:38:30;38.53;35.36;49.15;;
37162;Laerm;68342;52.598;13.450;2023-08-21T03:40:55;40.61;36.75;53.45;;
37162;Laerm;68342;52.598;13.450;2023-08-21T03:43:20;42.75;37.14;54.20;;
37162;Laerm;68342;52.598;13.450;2023-08-21T03:45:45;39.04;35.56;51.44;;
37162;Laerm;68342;52.598;13.450;2023-08-21T03:48:11;41.25;36.14;50.35;;
37162;Laerm;68342;52.598;13.450;2023-08-21T03:50:36;41.56;38.22;49.81;;
37162;Laerm;68342;52.598;13.450;2023-08-21T03:53:01;42.34;38.56;47.63;;
37162;Laerm;68342;52.598;13.450;2023-08-21T03:55:26;41.25;38.16;51.58;;
37162;Laerm;68342;52.598;13.450;2023-08-21T03:57:52;42.11;37.33;52.98;;
37162;Laerm;68342;52.598;13.450;2023-08-21T04:00:17;43.07;37.05;51.26;;
37162;Laerm;68342;52.598;13.450;2023-08-21T04:02:42;41.88;38.37;53.57;;
37162;Laerm;68342;52.598;13.450;2023-08-21T04:05:07;42.13;37.05;58.88;;
37162;Laerm;68342;52.598;13.450;2023-08-21T04:07:33;43.82;39.06;61.59;;
37162;Laerm;68342;52.598;13.450;2023-08-21T04:09:58;47.16;39.74;69.74;;
37162;Laerm;68342;52.598;13.450;2023-08-21T04:12:23;46.94;39.82;62.19;;
37162;Laerm;68342;52.598;13.450;2023-08-21T04:14:48;47.20;39.88;61.05;;
37162;Laerm;68342;52.598;13.450;2023-08-21T04:17:14;43.18;39.04;51.32;;
37162;Laerm;68342;52.598;13.450;2023-08-21T04:19:39;43.80;40.57;51.23;;
37162;Laerm;68342;52.598;13.450;2023-08-21T04:22:06;44.17;40.91;52.26;;
37162;Laerm;68342;52.598;13.450;2023-08-21T04:24:31;44.28;40.38;50.65;;
37162;Laerm;68342;52.598;13.450;2023-08-21T04:26:56;44.70;39.64;58.18;;
37162;Laerm;68342;52.598;13.450;2023-08-21T04:29:21;46.21;40.34;58.46;;
37162;Laerm;68342;52.598;13.450;2023-08-21T04:31:47;44.81;39.46;58.63;;
37162;Laerm;68342;52.598;13.450;2023-08-21T04:34:13;45.65;41.03;54.82;;
37162;Laerm;68342;52.598;13.450;2023-08-21T04:36:38;45.30;41.48;65.75;;
37162;Laerm;68342;52.598;13.450;2023-08-21T04:39:03;45.79;41.53;65.42;;
37162;Laerm;68342;52.598;13.450;2023-08-21T04:41:29;45.55;42.07;53.58;;
37162;Laerm;68342;52.598;13.450;2023-08-21T04:43:54;46.23;42.88;56.06;;
37162;Laerm;68342;52.598;13.450;2023-08-21T04:46:19;46.48;41.53;64.86;;
37162;Laerm;68342;52.598;13.450;2023-08-21T04:48:45;46.12;42.40;53.51;;
37162;Laerm;68342;52.598;13.450;2023-08-21T04:51:10;45.17;41.28;54.06;;
37162;Laerm;68342;52.598;13.450;2023-08-21T04:53:35;45.32;41.37;56.02;;
37162;Laerm;68342;52.598;13.450;2023-08-21T04:58:28;45.21;41.52;61.72;;
37162;Laerm;68342;52.598;13.450;2023-08-21T05:00:53;45.32;40.62;59.25;;
37162;Laerm;68342;52.598;13.450;2023-08-21T05:03:19;43.93;40.36;57.79;;
37162;Laerm;68342;52.598;13.450;2023-08-21T05:05:54;46.04;40.06;64.13;;
37162;Laerm;68342;52.598;13.450;2023-08-21T05:08:20;43.00;39.48;52.40;;
37162;Laerm;68342;52.598;13.450;2023-08-21T05:10:45;42.09;38.74;55.74;;
37162;Laerm;68342;52.598;13.450;2023-08-21T05:13:11;44.61;37.82;63.79;;
37162;Laerm;68342;52.598;13.450;2023-08-21T05:15:36;42.12;38.29;58.08;;
37162;Laerm;68342;52.598;13.450;2023-08-21T05:18:01;41.55;36.60;53.07;;
37162;Laerm;68342;52.598;13.450;2023-08-21T05:20:26;40.21;36.83;50.62;;
37162;Laerm;68342;52.598;13.450;2023-08-21T05:22:51;45.65;37.56;63.72;;
37162;Laerm;68342;52.598;13.450;2023-08-21T05:25:17;46.17;37.14;63.32;;
37162;Laerm;68342;52.598;13.450;2023-08-21T05:27:42;39.98;36.23;50.64;;
37162;Laerm;68342;52.598;13.450;2023-08-21T05:30:07;41.01;36.81;49.47;;
37162;Laerm;68342;52.598;13.450;2023-08-21T05:32:33;40.37;36.82;52.36;;
37162;Laerm;68342;52.598;13.450;2023-08-21T05:34:58;41.74;37.22;55.78;;
37162;Laerm;68342;52.598;13.450;2023-08-21T05:37:23;45.56;36.76;65.68;;
37162;Laerm;68342;52.598;13.450;2023-08-21T05:39:48;43.86;35.56;64.29;;
37162;Laerm;68342;52.598;13.450;2023-08-21T05:42:14;43.51;36.48;58.10;;
37162;Laerm;68342;52.598;13.450;2023-08-21T05:44:39;42.38;35.72;57.03;;
37162;Laerm;68342;52.598;13.450;2023-08-21T05:47:04;41.55;35.16;53.70;;
37162;Laerm;68342;52.598;13.450;2023-08-21T05:49:29;39.07;34.55;52.97;;
37162;Laerm;68342;52.598;13.450;2023-08-21T05:51:56;41.14;34.47;59.24;;
37162;Laerm;68342;52.598;13.450;2023-08-21T05:54:24;38.77;34.59;59.43;;
37162;Laerm;68342;52.598;13.450;2023-08-21T05:56:49;41.94;35.01;54.48;;
37162;Laerm;68342;52.598;13.450;2023-08-21T05:59:20;42.86;34.71;61.93;;
37162;Laerm;68342;52.598;13.450;2023-08-21T06:01:50;39.58;34.21;56.63;;
37162;Laerm;68342;52.598;13.450;2023-08-21T06:04:16;39.23;34.82;49.55;;
37162;Laerm;68342;52.598;13.450;2023-08-21T06:06:41;38.62;35.32;50.51;;
37162;Laerm;68342;52.598;13.450;2023-08-21T06:09:06;39.17;35.29;50.37;;
37162;Laerm;68342;52.598;13.450;2023-08-21T06:11:32;39.95;35.77;53.66;;
37162;Laerm;68342;52.598;13.450;2023-08-21T06:13:57;40.57;35.11;55.01;;
37162;Laerm;68342;52.598;13.450;2023-08-21T06:16:23;39.06;35.52;47.43;;
37162;Laerm;68342;52.598;13.450;2023-08-21T06:18:48;41.54;37.35;51.99;;
37162;Laerm;68342;52.598;13.450;2023-08-21T06:21:13;43.10;38.22;52.91;;
37162;Laerm;68342;52.598;13.450;2023-08-21T06:23:38;40.30;36.71;50.42;;
37162;Laerm;68342;52.598;13.450;2023-08-21T06:26:04;40.29;36.73;47.51;;
37162;Laerm;68342;52.598;13.450;2023-08-21T06:28:29;40.30;36.91;48.99;;
37162;Laerm;68342;52.598;13.450;2023-08-21T06:30:55;42.33;37.69;58.62;;
37162;Laerm;68342;52.598;13.450;2023-08-21T06:33:22;44.29;36.59;56.49;;
37162;Laerm;68342;52.598;13.450;2023-08-21T06:35:47;44.39;37.08;62.77;;
37162;Laerm;68342;52.598;13.450;2023-08-21T06:38:12;45.79;36.86;62.72;;
37162;Laerm;68342;52.598;13.450;2023-08-21T06:40:38;43.82;37.13;59.03;;
37162;Laerm;68342;52.598;13.450;2023-08-21T06:43:03;41.66;36.41;56.68;;
37162;Laerm;68342;52.598;13.450;2023-08-21T06:45:30;41.39;37.53;53.32;;
37162;Laerm;68342;52.598;13.450;2023-08-21T06:47:57;45.28;37.25;76.06;;
37162;Laerm;68342;52.598;13.450;2023-08-21T06:50:22;40.16;37.34;48.93;;
37162;Laerm;68342;52.598;13.450;2023-08-21T06:52:47;41.24;36.60;50.02;;
37162;Laerm;68342;52.598;13.450;2023-08-21T06:55:13;40.89;37.05;48.52;;
37162;Laerm;68342;52.598;13.450;2023-08-21T06:57:38;41.11;36.88;56.82;;
37162;Laerm;68342;52.598;13.450;2023-08-21T07:00:04;43.33;36.78;58.77;;
37162;Laerm;68342;52.598;13.450;2023-08-21T07:02:30;41.85;37.09;55.07;;
37162;Laerm;68342;52.598;13.450;2023-08-21T07:04:56;42.63;37.29;52.87;;
37162;Laerm;68342;52.598;13.450;2023-08-21T07:07:21;44.30;37.09;55.39;;
37162;Laerm;68342;52.598;13.450;2023-08-21T07:09:47;43.32;37.45;60.90;;
37162;Laerm;68342;52.598;13.450;2023-08-21T07:12:12;42.53;36.87;59.44;;
37162;Laerm;68342;52.598;13.450;2023-08-21T07:14:37;52.20;37.53;72.93;;
37162;Laerm;68342;52.598;13.450;2023-08-21T07:17:03;59.40;36.84;80.86;;
37162;Laerm;68342;52.598;13.450;2023-08-21T07:19:28;55.74;37.55;75.43;;
37162;Laerm;68342;52.598;13.450;2023-08-21T07:21:53;46.55;38.45;70.95;;
37162;Laerm;68342;52.598;13.450;2023-08-21T07:24:18;42.28;37.44;58.09;;
37162;Laerm;68342;52.598;13.450;2023-08-21T07:26:44;42.38;37.37;53.96;;
37162;Laerm;68342;52.598;13.450;2023-08-21T07:29:09;43.69;37.63;57.55;;
37162;Laerm;68342;52.598;13.450;2023-08-21T07:31:34;43.76;38.46;58.00;;
37162;Laerm;68342;52.598;13.450;2023-08-21T07:34:00;42.62;36.66;57.67;;
37162;Laerm;68342;52.598;13.450;2023-08-21T07:36:25;42.09;37.60;53.14;;
37162;Laerm;68342;52.598;13.450;2023-08-21T07:38:50;42.22;38.30;50.92;;
37162;Laerm;68342;52.598;13.450;2023-08-21T07:41:15;43.57;38.86;52.07;;
37162;Laerm;68342;52.598;13.450;2023-08-21T07:43:41;42.26;38.27;56.06;;
37162;Laerm;68342;52.598;13.450;2023-08-21T07:46:07;42.19;37.67;52.51;;
37162;Laerm;68342;52.598;13.450;2023-08-21T07:48:34;43.49;37.68;59.93;;
37162;Laerm;68342;52.598;13.450;2023-08-21T07:51:00;41.31;37.60;51.95;;
37162;Laerm;68342;52.598;13.450;2023-08-21T07:53:25;42.34;38.16;54.83;;
37162;Laerm;68342;52.598;13.450;2023-08-21T07:55:51;44.82;40.05;53.33;;
37162;Laerm;68342;52.598;13.450;2023-08-21T07:58:16;42.03;38.05;51.10;;
37162;Laerm;68342;52.598;13.450;2023-08-21T08:00:42;43.11;39.37;53.27;;
37162;Laerm;68342;52.598;13.450;2023-08-21T08:03:10;43.85;39.01;52.87;;
37162;Laerm;68342;52.598;13.450;2023-08-21T08:05:36;44.99;39.44;68.50;;
37162;Laerm;68342;52.598;13.450;2023-08-21T08:08:01;43.74;38.99;65.75;;
37162;Laerm;68342;52.598;13.450;2023-08-21T08:10:26;43.48;39.88;55.74;;
37162;Laerm;68342;52.598;13.450;2023-08-21T08:12:51;42.83;38.81;61.35;;
37162;Laerm;68342;52.598;13.450;2023-08-21T08:15:18;43.22;39.40;55.09;;
37162;Laerm;68342;52.598;13.450;2023-08-21T08:17:43;43.18;37.78;55.55;;
37162;Laerm;68342;52.598;13.450;2023-08-21T08:20:11;44.08;39.89;60.16;;
37162;Laerm;68342;52.598;13.450;2023-08-21T08:22:36;43.43;39.44;50.36;;
37162;Laerm;68342;52.598;13.450;2023-08-21T08:25:01;44.10;39.18;52.88;;
37162;Laerm;68342;52.598;13.450;2023-08-21T08:27:27;44.48;39.18;53.60;;
37162;Laerm;68342;52.598;13.450;2023-08-21T08:29:52;42.56;39.32;50.86;;
37162;Laerm;68342;52.598;13.450;2023-08-21T08:32:17;47.04;40.31;59.58;;
37162;Laerm;68342;52.598;13.450;2023-08-21T08:34:42;44.85;39.04;60.43;;
37162;Laerm;68342;52.598;13.450;2023-08-21T08:37:11;46.69;40.00;61.09;;
37162;Laerm;68342;52.598;13.450;2023-08-21T08:39:36;45.91;41.45;58.85;;
37162;Laerm;68342;52.598;13.450;2023-08-21T08:42:05;46.21;41.03;56.41;;
37162;Laerm;68342;52.598;13.450;2023-08-21T08:44:31;47.49;41.73;57.59;;
37162;Laerm;68342;52.598;13.450;2023-08-21T08:46:59;44.48;38.93;55.82;;
37162;Laerm;68342;52.598;13.450;2023-08-21T08:49:25;47.22;39.28;59.07;;
37162;Laerm;68342;52.598;13.450;2023-08-21T08:51:51;44.73;39.17;57.70;;
37162;Laerm;68342;52.598;13.450;2023-08-21T08:54:18;46.15;40.00;57.14;;
37162;Laerm;68342;52.598;13.450;2023-08-21T08:56:44;44.85;40.04;58.47;;
37162;Laerm;68342;52.598;13.450;2023-08-21T08:59:10;45.39;40.07;59.76;;
37162;Laerm;68342;52.598;13.450;2023-08-21T09:01:35;44.52;39.70;60.53;;
37162;Laerm;68342;52.598;13.450;2023-08-21T09:04:01;43.62;38.94;50.18;;
37162;Laerm;68342;52.598;13.450;2023-08-21T09:06:26;42.82;38.50;53.34;;
37162;Laerm;68342;52.598;13.450;2023-08-21T09:08:55;41.91;38.18;51.73;;
37162;Laerm;68342;52.598;13.450;2023-08-21T09:11:21;47.55;39.50;64.80;;
37162;Laerm;68342;52.598;13.450;2023-08-21T09:13:48;45.79;38.43;60.63;;
37162;Laerm;68342;52.598;13.450;2023-08-21T09:16:17;42.86;37.97;55.26;;
37162;Laerm;68342;52.598;13.450;2023-08-21T09:18:52;42.23;39.06;56.44;;
37162;Laerm;68342;52.598;13.450;2023-08-21T09:21:27;44.62;39.05;57.62;;
37162;Laerm;68342;52.598;13.450;2023-08-21T09:23:59;43.88;37.77;61.44;;
37162;Laerm;68342;52.598;13.450;2023-08-21T09:26:25;44.43;37.70;62.25;;
37162;Laerm;68342;52.598;13.450;2023-08-21T09:28:52;41.76;37.17;55.66;;
37162;Laerm;68342;52.598;13.450;2023-08-21T09:31:36;41.85;37.57;55.77;;
37162;Laerm;68342;52.598;13.450;2023-08-21T09:34:13;42.70;38.39;55.71;;
37162;Laerm;68342;52.598;13.450;2023-08-21T09:36:53;42.74;38.37;51.84;;
37162;Laerm;68342;52.598;13.450;2023-08-21T09:39:21;42.54;37.55;56.19;;
37162;Laerm;68342;52.598;13.450;2023-08-21T09:41:59;43.55;38.78;53.01;;
37162;Laerm;68342;52.598;13.450;2023-08-21T09:44:29;43.83;38.39;55.72;;
37162;Laerm;68342;52.598;13.450;2023-08-21T09:47:01;44.74;38.53;58.67;;
37162;Laerm;68342;52.598;13.450;2023-08-21T09:49:28;44.29;38.21;57.35;;
37162;Laerm;68342;52.598;13.450;2023-08-21T09:51:58;43.41;39.61;52.54;;
37162;Laerm;68342;52.598;13.450;2023-08-21T09:54:28;42.93;38.82;56.51;;
37162;Laerm;68342;52.598;13.450;2023-08-21T09:57:03;43.25;39.43;55.68;;
37162;Laerm;68342;52.598;13.450;2023-08-21T09:59:35;42.79;38.19;54.13;;
37162;Laerm;68342;52.598;13.450;2023-08-21T10:02:07;44.75;39.34;60.73;;
37162;Laerm;68342;52.598;13.450;2023-08-21T10:04:39;42.89;38.31;58.35;;
37162;Laerm;68342;52.598;13.450;2023-08-21T10:07:06;42.83;38.01;60.02;;
37162;Laerm;68342;52.598;13.450;2023-08-21T10:09:32;42.89;37.99;61.57;;
37162;Laerm;68342;52.598;13.450;2023-08-21T10:12:02;41.14;37.93;56.92;;
37162;Laerm;68342;52.598;13.450;2023-08-21T10:14:28;42.77;38.19;54.82;;
37162;Laerm;68342;52.598;13.450;2023-08-21T10:16:53;43.09;38.74;56.86;;
37162;Laerm;68342;52.598;13.450;2023-08-21T10:19:19;44.27;40.48;51.31;;
37162;Laerm;68342;52.598;13.450;2023-08-21T10:21:48;44.51;39.51;50.54;;
37162;Laerm;68342;52.598;13.450;2023-08-21T10:24:27;43.32;39.64;54.56;;
37162;Laerm;68342;52.598;13.450;2023-08-21T10:26:53;42.00;38.39;48.18;;
37162;Laerm;68342;52.598;13.450;2023-08-21T10:29:18;42.39;38.45;50.04;;
37162;Laerm;68342;52.598;13.450;2023-08-21T10:31:43;43.67;40.03;57.63;;
37162;Laerm;68342;52.598;13.450;2023-08-21T10:34:09;46.43;38.74;73.29;;
37162;Laerm;68342;52.598;13.450;2023-08-21T10:39:16;42.66;38.07;53.27;;
37162;Laerm;68342;52.598;13.450;2023-08-21T10:41:52;43.41;39.23;60.35;;
37162;Laerm;68342;52.598;13.450;2023-08-21T10:44:18;49.23;38.09;77.62;;
37162;Laerm;68342;52.598;13.450;2023-08-21T10:47:12;40.74;37.28;51.71;;
37162;Laerm;68342;52.598;13.450;2023-08-21T10:49:39;40.42;36.21;51.11;;
37162;Laerm;68342;52.598;13.450;2023-08-21T10:52:04;41.30;38.09;47.62;;
37162;Laerm;68342;52.598;13.450;2023-08-21T10:54:42;41.95;37.97;53.04;;
37162;Laerm;68342;52.598;13.450;2023-08-21T10:57:07;43.25;38.39;56.23;;
37162;Laerm;68342;52.598;13.450;2023-08-21T10:59:32;43.72;39.85;54.29;;
37162;Laerm;68342;52.598;13.450;2023-08-21T11:01:58;42.90;38.77;53.29;;
37162;Laerm;68342;52.598;13.450;2023-08-21T11:04:23;43.16;39.24;54.33;;
37162;Laerm;68342;52.598;13.450;2023-08-21T11:06:50;43.22;39.45;56.13;;
37162;Laerm;68342;52.598;13.450;2023-08-21T11:09:16;41.67;38.53;47.43;;
37162;Laerm;68342;52.598;13.450;2023-08-21T11:11:43;43.94;39.32;49.07;;
37162;Laerm;68342;52.598;13.450;2023-08-21T11:14:08;43.29;39.62;67.07;;
37162;Laerm;68342;52.598;13.450;2023-08-21T11:16:33;44.33;38.54;62.36;;
37162;Laerm;68342;52.598;13.450;2023-08-21T11:19:02;45.40;37.88;61.15;;
37162;Laerm;68342;52.598;13.450;2023-08-21T11:21:28;45.90;37.54;59.58;;
37162;Laerm;68342;52.598;13.450;2023-08-21T11:23:53;46.55;37.79;63.91;;
37162;Laerm;68342;52.598;13.450;2023-08-21T11:26:18;42.30;38.33;55.11;;
37162;Laerm;68342;52.598;13.450;2023-08-21T11:28:44;43.59;36.78;53.66;;
37162;Laerm;68342;52.598;13.450;2023-08-21T11:31:09;44.06;39.67;52.38;;
37162;Laerm;68342;52.598;13.450;2023-08-21T11:33:36;45.28;39.06;56.15;;
37162;Laerm;68342;52.598;13.450;2023-08-21T11:36:02;46.38;40.89;66.76;;
37162;Laerm;68342;52.598;13.450;2023-08-21T11:38:27;43.65;39.35;53.00;;
37162;Laerm;68342;52.598;13.450;2023-08-21T11:43:18;44.85;39.52;67.01;;
37162;Laerm;68342;52.598;13.450;2023-08-21T11:45:45;44.42;38.02;55.42;;
37162;Laerm;68342;52.598;13.450;2023-08-21T11:48:10;43.85;39.13;57.72;;
37162;Laerm;68342;52.598;13.450;2023-08-21T11:50:35;42.13;38.48;52.40;;
37162;Laerm;68342;52.598;13.450;2023-08-21T11:53:02;43.86;39.49;57.33;;
37162;Laerm;68342;52.598;13.450;2023-08-21T11:55:27;43.11;37.99;63.16;;
37162;Laerm;68342;52.598;13.450;2023-08-21T11:57:53;43.85;38.92;56.79;;
37162;Laerm;68342;52.598;13.450;2023-08-21T12:00:27;45.10;39.94;61.43;;
37162;Laerm;68342;52.598;13.450;2023-08-21T12:02:57;43.97;39.28;54.91;;
37162;Laerm;68342;52.598;13.450;2023-08-21T12:05:23;42.22;38.10;53.20;;
37162;Laerm;68342;52.598;13.450;2023-08-21T12:07:48;43.04;37.56;57.07;;
37162;Laerm;68342;52.598;13.450;2023-08-21T12:10:14;42.05;37.91;50.29;;
37162;Laerm;68342;52.598;13.450;2023-08-21T12:12:39;41.85;37.32;52.39;;
37162;Laerm;68342;52.598;13.450;2023-08-21T12:15:04;41.81;37.91;49.19;;
37162;Laerm;68342;52.598;13.450;2023-08-21T12:17:30;43.10;38.44;52.52;;
37162;Laerm;68342;52.598;13.450;2023-08-21T12:19:56;46.78;37.58;59.59;;
37162;Laerm;68342;52.598;13.450;2023-08-21T12:22:21;42.81;39.13;50.34;;
37162;Laerm;68342;52.598;13.450;2023-08-21T12:24:46;45.06;38.78;56.45;;
37162;Laerm;68342;52.598;13.450;2023-08-21T12:27:11;41.67;38.26;49.68;;
37162;Laerm;68342;52.598;13.450;2023-08-21T12:29:37;41.40;37.93;59.73;;
37162;Laerm;68342;52.598;13.450;2023-08-21T12:32:02;43.33;39.02;51.08;;
37162;Laerm;68342;52.598;13.450;2023-08-21T12:34:30;42.37;39.40;48.79;;
37162;Laerm;68342;52.598;13.450;2023-08-21T12:36:55;41.48;38.15;47.91;;
37162;Laerm;68342;52.598;13.450;2023-08-21T12:39:21;42.68;38.89;53.28;;
37162;Laerm;68342;52.598;13.450;2023-08-21T12:41:47;50.10;39.27;79.77;;
37162;Laerm;68342;52.598;13.450;2023-08-21T12:44:12;42.13;37.51;51.48;;
37162;Laerm;68342;52.598;13.450;2023-08-21T12:46:37;41.70;37.85;49.72;;
37162;Laerm;68342;52.598;13.450;2023-08-21T12:49:03;42.00;37.65;52.37;;
37162;Laerm;68342;52.598;13.450;2023-08-21T12:51:29;43.50;38.37;53.09;;
37162;Laerm;68342;52.598;13.450;2023-08-21T12:53:54;42.66;38.20;54.73;;
37162;Laerm;68342;52.598;13.450;2023-08-21T12:56:20;43.12;39.20;53.07;;
37162;Laerm;68342;52.598;13.450;2023-08-21T12:58:45;45.74;38.91;56.40;;
37162;Laerm;68342;52.598;13.450;2023-08-21T13:01:10;43.42;38.79;58.04;;
37162;Laerm;68342;52.598;13.450;2023-08-21T13:03:37;42.81;38.64;55.54;;
37162;Laerm;68342;52.598;13.450;2023-08-21T13:06:02;41.42;38.31;51.73;;
37162;Laerm;68342;52.598;13.450;2023-08-21T13:08:28;41.69;38.12;54.35;;
37162;Laerm;68342;52.598;13.450;2023-08-21T13:10:53;44.31;38.12;59.59;;
37162;Laerm;68342;52.598;13.450;2023-08-21T13:13:18;43.27;37.93;54.51;;
37162;Laerm;68342;52.598;13.450;2023-08-21T13:15:43;42.85;37.54;56.74;;
37162;Laerm;68342;52.598;13.450;2023-08-21T13:18:12;42.45;38.46;52.55;;
37162;Laerm;68342;52.598;13.450;2023-08-21T13:20:39;44.12;40.07;53.35;;
37162;Laerm;68342;52.598;13.450;2023-08-21T13:23:04;44.09;40.77;51.18;;
37162;Laerm;68342;52.598;13.450;2023-08-21T13:25:30;45.03;41.50;50.35;;
37162;Laerm;68342;52.598;13.450;2023-08-21T13:27:55;44.45;39.93;51.34;;
37162;Laerm;68342;52.598;13.450;2023-08-21T13:30:20;42.44;39.04;48.97;;
37162;Laerm;68342;52.598;13.450;2023-08-21T13:32:47;42.02;38.89;52.73;;
37162;Laerm;68342;52.598;13.450;2023-08-21T13:35:12;42.36;39.70;50.84;;
37162;Laerm;68342;52.598;13.450;2023-08-21T13:37:37;42.40;38.77;56.87;;